createdAt,value
2022-09-13T00:01:14.391Z,12.93
2022-09-13T00:03:42.518Z,10.48
2022-09-13T00:06:11.752Z,11.27
2022-09-13T00:08:39.249Z,10.85
2022-09-13T00:11:06.102Z,9.20
2022-09-13T00:13:33.434Z,9.15
2022-09-13T00:16:04.004Z,12.15
2022-09-13T00:18:31.414Z,7.35
2022-09-13T00:21:31.872Z,9.45
2022-09-13T00:23:59.032Z,39.50
2022-09-13T00:26:27.451Z,17.73
2022-09-13T00:28:56.489Z,16.60
2022-09-13T00:31:24.730Z,19.85
2022-09-13T00:33:52.302Z,17.00
2022-09-13T00:36:19.700Z,11.50
2022-09-13T00:38:46.732Z,10.65
2022-09-13T00:41:14.981Z,7.05
2022-09-13T00:43:45.241Z,8.88
2022-09-13T00:46:14.062Z,11.20
2022-09-13T00:48:41.260Z,8.95
2022-09-13T00:51:09.743Z,7.07
2022-09-13T00:53:38.192Z,6.68
2022-09-13T00:56:20.402Z,11.85
2022-09-13T00:58:50.196Z,9.30
2022-09-13T01:01:18.426Z,9.68
2022-09-13T01:03:47.913Z,14.07
2022-09-13T01:06:17.684Z,10.60
2022-09-13T01:08:46.480Z,7.30
2022-09-13T01:11:30.849Z,11.50
2022-09-13T01:13:58.578Z,8.38
2022-09-13T01:16:25.812Z,12.10
2022-09-13T01:18:53.615Z,16.13
2022-09-13T01:21:20.391Z,16.77
2022-09-13T01:23:53.581Z,13.63
2022-09-13T01:26:34.227Z,12.82
2022-09-13T01:29:20.096Z,13.68
2022-09-13T01:31:57.070Z,13.60
2022-09-13T01:34:27.338Z,9.00
2022-09-13T01:37:03.812Z,13.80
2022-09-13T01:39:30.842Z,28.88
2022-09-13T01:42:01.902Z,32.65
2022-09-13T01:44:50.187Z,9.93
2022-09-13T01:47:25.021Z,14.75
2022-09-13T01:50:12.280Z,14.55
2022-09-13T01:52:50.646Z,15.13
2022-09-13T01:55:18.468Z,16.70
2022-09-13T01:57:51.724Z,15.23
2022-09-13T02:00:19.457Z,12.35
2022-09-13T02:03:01.790Z,20.27
2022-09-13T02:05:51.851Z,31.30
2022-09-13T02:08:25.487Z,31.55
2022-09-13T02:10:55.054Z,18.25
2022-09-13T02:13:25.517Z,17.48
2022-09-13T02:15:55.009Z,12.63
2022-09-13T02:18:28.231Z,31.75
2022-09-13T02:20:58.677Z,20.13
2022-09-13T02:23:38.123Z,22.10
2022-09-13T02:26:06.091Z,20.20
2022-09-13T02:28:36.615Z,26.92
2022-09-13T02:31:04.918Z,19.38
2022-09-13T02:33:33.920Z,20.95
2022-09-13T02:36:02.759Z,37.00
2022-09-13T02:38:31.987Z,25.50
2022-09-13T02:41:15.166Z,25.65
2022-09-13T02:43:45.481Z,28.50
2022-09-13T02:46:35.611Z,24.48
2022-09-13T02:49:05.182Z,30.58
2022-09-13T02:51:31.896Z,31.65
2022-09-13T02:54:08.276Z,31.88
2022-09-13T02:56:37.965Z,18.48
2022-09-13T02:59:10.491Z,15.70
2022-09-13T03:01:37.895Z,23.55
2022-09-13T03:04:04.759Z,17.95
2022-09-13T03:06:31.571Z,14.45
2022-09-13T03:09:01.143Z,17.92
2022-09-13T03:11:30.566Z,22.80
2022-09-13T03:13:57.355Z,23.60
2022-09-13T03:16:28.075Z,23.35
2022-09-13T03:19:13.239Z,12.68
2022-09-13T03:21:40.278Z,16.27
2022-09-13T03:24:30.038Z,21.45
2022-09-13T03:27:19.461Z,20.88
2022-09-13T03:29:52.301Z,25.67
2022-09-13T03:32:19.069Z,19.15
2022-09-13T03:34:50.742Z,18.83
2022-09-13T03:37:36.262Z,12.48
2022-09-13T03:40:10.381Z,8.48
2022-09-13T03:42:37.284Z,9.10
2022-09-13T03:45:05.544Z,9.77
2022-09-13T03:47:33.990Z,10.88
2022-09-13T03:50:01.122Z,7.63
2022-09-13T03:52:28.201Z,16.75
2022-09-13T03:54:55.123Z,9.00
2022-09-13T03:57:22.496Z,9.05
2022-09-13T03:59:50.264Z,12.07
2022-09-13T04:02:17.569Z,9.10
2022-09-13T04:04:45.187Z,9.48
2022-09-13T04:07:13.259Z,13.73
2022-09-13T04:09:40.113Z,11.27
2022-09-13T04:12:06.993Z,7.43
2022-09-13T04:14:33.869Z,17.02
2022-09-13T04:17:00.696Z,12.23
2022-09-13T04:19:27.753Z,13.38
2022-09-13T04:21:55.304Z,16.52
2022-09-13T04:24:26.892Z,17.92
2022-09-13T04:26:54.640Z,16.63
2022-09-13T04:29:22.419Z,10.00
2022-09-13T04:31:49.910Z,9.80
2022-09-13T04:34:18.694Z,10.27
2022-09-13T04:36:48.177Z,9.52
2022-09-13T04:39:14.910Z,10.98
2022-09-13T04:41:46.156Z,12.15
2022-09-13T04:44:15.863Z,7.82
2022-09-13T04:46:43.049Z,7.82
2022-09-13T04:49:10.648Z,4.22
2022-09-13T04:51:37.526Z,8.23
2022-09-13T04:54:04.582Z,9.00
2022-09-13T04:56:31.990Z,8.98
2022-09-13T04:58:58.724Z,9.60
2022-09-13T05:01:27.856Z,10.07
2022-09-13T05:03:55.799Z,7.72
2022-09-13T05:06:23.132Z,10.18
2022-09-13T05:08:52.044Z,10.05
2022-09-13T05:11:19.288Z,10.95
2022-09-13T05:13:52.951Z,11.82
2022-09-13T05:16:20.131Z,19.50
2022-09-13T05:18:47.124Z,12.68
2022-09-13T05:21:14.852Z,10.15
2022-09-13T05:23:41.901Z,10.05
2022-09-13T05:26:09.117Z,10.98
2022-09-13T05:28:36.539Z,7.75
2022-09-13T05:31:17.213Z,11.35
2022-09-13T05:33:44.907Z,10.25
2022-09-13T05:36:12.051Z,10.93
2022-09-13T05:38:39.754Z,10.32
2022-09-13T05:41:06.777Z,16.63
2022-09-13T05:43:35.237Z,11.38
2022-09-13T05:46:07.467Z,11.50
2022-09-13T05:48:35.030Z,19.33
2022-09-13T05:51:05.577Z,12.07
2022-09-13T05:53:33.585Z,11.07
2022-09-13T05:56:00.658Z,15.30
2022-09-13T05:58:27.671Z,12.27
2022-09-13T06:00:55.919Z,11.80
2022-09-13T06:03:23.279Z,9.13
2022-09-13T06:05:50.056Z,14.88
2022-09-13T06:08:17.527Z,13.13
2022-09-13T06:10:44.262Z,7.15
2022-09-13T06:13:11.622Z,9.18
2022-09-13T06:15:43.119Z,7.50
2022-09-13T06:18:10.747Z,12.75
2022-09-13T06:20:37.475Z,9.32
2022-09-13T06:23:04.660Z,11.07
2022-09-13T06:25:31.444Z,18.92
2022-09-13T06:27:58.612Z,17.92
2022-09-13T06:30:25.782Z,11.52
2022-09-13T06:32:52.865Z,14.35
2022-09-13T06:35:19.606Z,11.90
2022-09-13T06:37:47.522Z,12.68
2022-09-13T06:40:14.405Z,18.05
2022-09-13T06:42:41.447Z,17.05
2022-09-13T06:45:08.954Z,23.73
2022-09-13T06:47:36.252Z,8.93
2022-09-13T06:50:03.005Z,7.45
2022-09-13T06:52:30.507Z,8.43
2022-09-13T06:54:57.300Z,26.10
2022-09-13T06:57:24.273Z,31.80
2022-09-13T06:59:51.404Z,29.75
2022-09-13T07:02:18.958Z,28.88
2022-09-13T07:04:45.869Z,29.92
2022-09-13T07:07:13.275Z,29.73
2022-09-13T07:09:40.433Z,48.25
2022-09-13T07:12:07.778Z,30.60
2022-09-13T07:14:34.852Z,54.63
2022-09-13T07:17:01.818Z,25.23
2022-09-13T07:19:28.963Z,39.38
2022-09-13T07:21:56.480Z,34.72
2022-09-13T07:24:23.963Z,26.50
2022-09-13T07:26:51.101Z,31.30
2022-09-13T07:29:20.053Z,34.85
2022-09-13T07:31:48.069Z,33.30
2022-09-13T07:34:22.520Z,37.53
2022-09-13T07:36:49.441Z,25.20
2022-09-13T07:39:21.542Z,35.10
2022-09-13T07:41:50.103Z,31.42
2022-09-13T07:44:16.927Z,52.35
2022-09-13T07:46:44.313Z,32.45
2022-09-13T07:49:13.062Z,46.33
2022-09-13T07:51:41.045Z,29.85
2022-09-13T07:54:11.409Z,21.95
2022-09-13T07:56:40.084Z,38.75
2022-09-13T07:59:07.961Z,41.03
2022-09-13T08:01:40.549Z,29.83
2022-09-13T08:04:09.599Z,30.55
2022-09-13T08:06:37.267Z,17.02
2022-09-13T08:09:05.741Z,41.17
2022-09-13T08:11:36.736Z,20.20
2022-09-13T08:14:04.750Z,14.18
2022-09-13T08:16:31.943Z,15.13
2022-09-13T08:19:00.415Z,14.40
2022-09-13T08:21:27.419Z,17.13
2022-09-13T08:23:57.356Z,11.63
2022-09-13T08:26:24.396Z,25.70
2022-09-13T08:28:55.513Z,15.88
2022-09-13T08:31:23.930Z,21.02
2022-09-13T08:33:50.967Z,14.20
2022-09-13T08:36:18.605Z,18.27
2022-09-13T08:38:49.361Z,21.48
2022-09-13T08:41:19.400Z,18.83
2022-09-13T08:43:46.456Z,17.77
2022-09-13T08:46:49.335Z,20.02
2022-09-13T08:49:34.845Z,22.52
2022-09-13T08:52:22.166Z,22.05
2022-09-13T08:54:50.843Z,18.67
2022-09-13T08:57:25.697Z,11.38
2022-09-13T08:59:58.450Z,25.60
2022-09-13T09:02:25.340Z,18.42
2022-09-13T09:04:52.188Z,15.60
2022-09-13T09:07:25.141Z,20.35
2022-09-13T09:09:54.637Z,17.88
2022-09-13T09:12:28.568Z,15.65
2022-09-13T09:14:58.237Z,17.20
2022-09-13T09:17:27.013Z,10.00
2022-09-13T09:19:55.725Z,11.82
2022-09-13T09:22:24.517Z,7.03
2022-09-13T09:24:54.407Z,12.25
2022-09-13T09:27:21.870Z,13.02
2022-09-13T09:29:50.699Z,13.35
2022-09-13T09:32:47.469Z,7.35
2022-09-13T09:35:18.024Z,8.20
2022-09-13T09:37:47.684Z,11.32
2022-09-13T09:40:14.795Z,13.13
2022-09-13T09:42:43.882Z,8.95
2022-09-13T09:45:20.078Z,9.85
2022-09-13T09:47:48.079Z,10.52
2022-09-13T09:50:18.681Z,10.15
2022-09-13T09:53:02.032Z,7.70
2022-09-13T09:55:37.936Z,4.90
2022-09-13T09:58:10.226Z,12.10
2022-09-13T10:00:57.298Z,5.90
2022-09-13T10:03:27.140Z,9.48
2022-09-13T10:06:06.182Z,6.35
2022-09-13T10:08:37.671Z,11.55
2022-09-13T10:11:04.972Z,4.95
2022-09-13T10:13:32.485Z,6.85
2022-09-13T10:16:06.588Z,6.07
2022-09-13T10:18:50.461Z,7.68
2022-09-13T10:21:17.252Z,7.63
2022-09-13T10:23:45.000Z,5.57
2022-09-13T10:26:11.923Z,5.68
2022-09-13T10:28:44.868Z,8.23
2022-09-13T10:31:17.123Z,7.53
2022-09-13T10:33:47.782Z,10.27
2022-09-13T10:36:29.607Z,8.48
2022-09-13T10:39:07.577Z,10.75
2022-09-13T10:41:39.076Z,8.27
2022-09-13T10:44:09.718Z,7.97
2022-09-13T10:46:37.965Z,5.53
2022-09-13T10:49:06.653Z,10.05
2022-09-13T10:51:38.581Z,10.48
2022-09-13T10:54:17.730Z,10.80
2022-09-13T10:56:45.412Z,9.68
2022-09-13T10:59:23.500Z,12.15
2022-09-13T11:01:53.499Z,15.00
2022-09-13T11:04:52.958Z,13.32
2022-09-13T11:07:27.583Z,12.85
2022-09-13T11:09:57.843Z,5.80
2022-09-13T11:12:30.534Z,12.65
2022-09-13T11:14:57.503Z,11.05
2022-09-13T11:17:24.581Z,9.52
2022-09-13T11:19:57.065Z,11.48
2022-09-13T11:22:36.696Z,5.43
2022-09-13T11:25:09.927Z,16.27
2022-09-13T11:27:40.091Z,11.95
2022-09-13T11:30:12.775Z,7.70
2022-09-13T11:32:48.445Z,7.88
2022-09-13T11:35:23.667Z,7.33
2022-09-13T11:38:25.816Z,7.82
2022-09-13T11:40:56.120Z,7.13
2022-09-13T11:43:32.985Z,8.50
2022-09-13T11:46:13.800Z,6.65
2022-09-13T11:48:49.748Z,8.35
2022-09-13T11:51:19.424Z,8.43
2022-09-13T11:53:58.387Z,10.75
2022-09-13T11:56:28.078Z,9.10
2022-09-13T11:59:05.543Z,9.35
2022-09-13T12:01:40.416Z,6.40
2022-09-13T12:04:14.205Z,9.82
2022-09-13T12:06:42.324Z,8.07
2022-09-13T12:09:15.199Z,4.15
2022-09-13T12:11:44.005Z,12.45
2022-09-13T12:14:15.852Z,7.55
2022-09-13T12:16:47.552Z,4.05
2022-09-13T12:19:14.354Z,3.58
2022-09-13T12:21:41.501Z,6.43
2022-09-13T12:24:14.298Z,9.98
2022-09-13T12:26:45.383Z,6.38
2022-09-13T12:29:12.082Z,5.55
2022-09-13T12:31:38.938Z,8.65
2022-09-13T12:34:12.175Z,12.23
2022-09-13T12:36:44.307Z,11.63
2022-09-13T12:39:16.252Z,2.58
2022-09-13T12:41:50.725Z,10.07
2022-09-13T12:44:17.808Z,5.03
2022-09-13T12:46:47.465Z,6.20
2022-09-13T12:49:32.919Z,8.07
2022-09-13T12:52:18.007Z,8.75
2022-09-13T12:55:04.114Z,3.85
2022-09-13T12:57:45.637Z,6.20
2022-09-13T13:00:34.020Z,2.00
2022-09-13T13:03:12.096Z,2.40
2022-09-13T13:05:41.222Z,6.70
2022-09-13T13:08:23.570Z,3.63
2022-09-13T13:11:12.758Z,6.28
2022-09-13T13:13:40.951Z,8.45
2022-09-13T13:16:25.612Z,7.65
2022-09-13T13:18:53.236Z,6.47
2022-09-13T13:21:26.155Z,6.05
2022-09-13T13:24:11.657Z,9.02
2022-09-13T13:26:42.664Z,5.00
2022-09-13T13:29:15.912Z,2.92
2022-09-13T13:32:04.781Z,2.38
2022-09-13T13:34:31.606Z,3.13
2022-09-13T13:37:04.795Z,4.88
2022-09-13T13:39:31.609Z,6.68
2022-09-13T13:41:59.745Z,4.90
2022-09-13T13:44:26.445Z,2.63
2022-09-13T13:47:16.348Z,3.65
2022-09-13T13:49:46.342Z,3.50
2022-09-13T13:52:16.738Z,10.35
2022-09-13T13:54:47.577Z,4.60
2022-09-13T13:57:25.894Z,3.55
2022-09-13T13:59:57.938Z,3.92
2022-09-13T14:02:38.743Z,3.55
2022-09-13T14:05:41.226Z,5.45
2022-09-13T14:08:26.495Z,3.58
2022-09-13T14:11:12.037Z,9.88
2022-09-13T14:14:04.725Z,9.57
2022-09-13T14:16:36.948Z,4.68
2022-09-13T14:19:16.112Z,7.38
2022-09-13T14:21:42.954Z,7.70
2022-09-13T14:24:17.077Z,7.85
2022-09-13T14:26:44.622Z,4.75
2022-09-13T14:29:15.330Z,5.55
2022-09-13T14:31:45.854Z,5.05
2022-09-13T14:34:20.720Z,2.63
2022-09-13T14:36:57.915Z,16.80
2022-09-13T14:39:25.304Z,9.63
2022-09-13T14:42:10.819Z,5.75
2022-09-13T14:44:37.720Z,8.57
2022-09-13T14:47:08.721Z,9.00
2022-09-13T14:49:41.479Z,5.82
2022-09-13T14:52:20.061Z,23.30
2022-09-13T14:54:52.870Z,8.52
2022-09-13T14:57:24.195Z,8.43
2022-09-13T14:59:53.297Z,9.95
2022-09-13T15:02:21.044Z,8.38
2022-09-13T15:04:50.280Z,7.90
2022-09-13T15:07:27.681Z,4.90
2022-09-13T15:10:05.378Z,11.77
2022-09-13T15:12:32.666Z,4.63
2022-09-13T15:15:17.834Z,3.05
2022-09-13T15:18:04.139Z,3.78
2022-09-13T15:20:49.601Z,2.90
2022-09-13T15:23:36.879Z,7.90
2022-09-13T15:26:11.445Z,7.25
2022-09-13T15:28:41.456Z,2.70
2022-09-13T15:31:08.329Z,12.77
2022-09-13T15:33:35.635Z,3.97
2022-09-13T15:36:20.731Z,4.05
2022-09-13T15:38:59.113Z,4.25
2022-09-13T15:41:29.176Z,3.90
2022-09-13T15:43:55.884Z,7.32
2022-09-13T15:46:22.813Z,9.45
2022-09-13T15:48:59.974Z,4.72
2022-09-13T15:51:26.782Z,3.97
2022-09-13T15:53:54.078Z,11.82
2022-09-13T15:56:22.578Z,6.95
2022-09-13T15:58:49.465Z,8.00
2022-09-13T16:01:16.839Z,8.13
2022-09-13T16:03:43.877Z,9.00
2022-09-13T16:06:10.771Z,11.65
2022-09-13T16:08:38.206Z,5.88
2022-09-13T16:11:05.855Z,3.85
2022-09-13T16:13:32.709Z,4.10
2022-09-13T16:15:59.577Z,4.53
2022-09-13T16:18:26.458Z,4.63
2022-09-13T16:20:53.181Z,6.40
2022-09-13T16:23:20.020Z,5.18
2022-09-13T16:25:47.934Z,8.77
2022-09-13T16:28:19.915Z,6.32
2022-09-13T16:30:47.328Z,5.47
2022-09-13T16:33:14.299Z,10.88
2022-09-13T16:35:41.200Z,7.30
2022-09-13T16:38:09.491Z,5.38
2022-09-13T16:40:38.331Z,11.50
2022-09-13T16:43:05.174Z,11.13
2022-09-13T16:45:31.924Z,9.70
2022-09-13T16:47:58.771Z,6.63
2022-09-13T16:50:25.502Z,8.45
2022-09-13T16:52:52.233Z,5.00
2022-09-13T16:55:19.128Z,5.97
2022-09-13T16:57:48.320Z,9.95
2022-09-13T17:00:15.650Z,8.70
2022-09-13T17:02:42.655Z,6.57
2022-09-13T17:05:11.170Z,12.00
2022-09-13T17:07:38.467Z,10.20
2022-09-13T17:10:06.078Z,10.43
2022-09-13T17:12:34.061Z,10.13
2022-09-13T17:15:01.354Z,9.73
2022-09-13T17:17:28.509Z,5.55
2022-09-13T17:19:55.234Z,5.93
2022-09-13T17:22:22.071Z,9.88
2022-09-13T17:24:49.017Z,12.35
2022-09-13T17:27:15.828Z,7.13
2022-09-13T17:29:42.574Z,10.13
2022-09-13T17:32:09.875Z,12.20
2022-09-13T17:34:36.662Z,6.90
2022-09-13T17:37:03.827Z,11.48
2022-09-13T17:39:30.917Z,11.88
2022-09-13T17:41:58.214Z,7.60
2022-09-13T17:44:25.091Z,10.52
2022-09-13T17:46:51.962Z,8.38
2022-09-13T17:49:18.850Z,8.73
2022-09-13T17:51:45.937Z,8.07
2022-09-13T17:54:12.854Z,9.88
2022-09-13T17:56:41.238Z,10.75
2022-09-13T17:59:10.367Z,8.50
2022-09-13T18:01:38.607Z,6.50
2022-09-13T18:04:05.503Z,13.50
2022-09-13T18:06:32.448Z,18.15
2022-09-13T18:08:59.223Z,12.93
2022-09-13T18:11:26.006Z,14.00
2022-09-13T18:13:53.171Z,10.93
2022-09-13T18:16:21.894Z,9.65
2022-09-13T18:18:50.496Z,13.50
2022-09-13T18:21:21.711Z,9.75
2022-09-13T18:23:49.523Z,13.43
2022-09-13T18:26:17.455Z,7.95
2022-09-13T18:28:44.722Z,23.48
2022-09-13T18:31:13.951Z,6.68
2022-09-13T18:33:41.269Z,6.55
2022-09-13T18:36:17.929Z,10.60
2022-09-13T18:41:19.073Z,14.48
2022-09-13T18:43:49.684Z,13.07
2022-09-13T18:46:21.299Z,17.33
2022-09-13T18:48:49.216Z,19.13
2022-09-13T18:51:17.475Z,14.63
2022-09-13T18:53:45.166Z,13.35
2022-09-13T18:56:13.776Z,17.60
2022-09-13T18:58:41.126Z,12.48
2022-09-13T19:01:10.162Z,15.18
2022-09-13T19:03:37.801Z,16.67
2022-09-13T19:06:16.323Z,20.15
2022-09-13T19:08:44.723Z,20.77
2022-09-13T19:11:29.209Z,20.02
2022-09-13T19:13:59.561Z,19.90
2022-09-13T19:16:29.219Z,24.48
2022-09-13T19:18:56.987Z,21.67
2022-09-13T19:21:29.828Z,29.55
2022-09-13T19:24:01.513Z,19.42
2022-09-13T19:26:36.359Z,19.45
2022-09-13T19:29:06.209Z,21.70
2022-09-13T19:31:34.275Z,14.60
2022-09-13T19:34:02.428Z,16.95
2022-09-13T19:36:34.079Z,14.10
2022-09-13T19:39:01.567Z,8.68
2022-09-13T19:41:29.902Z,11.95
2022-09-13T19:43:58.782Z,11.30
2022-09-13T19:46:27.799Z,15.20
2022-09-13T19:48:55.683Z,13.68
2022-09-13T19:51:23.981Z,12.23
2022-09-13T19:53:57.701Z,16.05
2022-09-13T19:56:29.328Z,14.57
2022-09-13T19:58:58.598Z,14.95
2022-09-13T20:01:26.483Z,9.15
2022-09-13T20:03:53.318Z,8.82
2022-09-13T20:06:20.404Z,10.55
2022-09-13T20:08:47.270Z,14.15
2022-09-13T20:11:16.536Z,21.10
2022-09-13T20:13:43.905Z,17.80
2022-09-13T20:16:11.200Z,13.95
2022-09-13T20:18:38.778Z,11.90
2022-09-13T20:23:54.806Z,26.17
2022-09-13T20:26:25.749Z,17.80
2022-09-13T20:29:02.271Z,22.92
2022-09-13T20:31:30.529Z,30.63
2022-09-13T20:33:59.301Z,26.40
2022-09-13T20:36:29.803Z,11.68
2022-09-13T20:39:02.305Z,10.77
2022-09-13T20:41:31.509Z,19.83
2022-09-13T20:43:59.901Z,18.13
2022-09-13T20:46:27.391Z,12.43
2022-09-13T20:48:54.444Z,18.95
2022-09-13T20:51:24.524Z,18.70
2022-09-13T20:53:56.222Z,19.95
2022-09-13T20:56:23.747Z,27.67
2022-09-13T20:58:57.343Z,19.90
2022-09-13T21:01:25.240Z,17.17
2022-09-13T21:03:54.293Z,26.92
2022-09-13T21:06:23.506Z,26.33
2022-09-13T21:08:51.317Z,19.33
2022-09-13T21:11:25.557Z,20.83
2022-09-13T21:13:55.004Z,22.83
2022-09-13T21:16:24.552Z,34.40
2022-09-13T21:18:53.510Z,45.70
2022-09-13T21:21:23.775Z,34.80
2022-09-13T21:23:52.001Z,51.88
2022-09-13T21:26:23.172Z,59.55
2022-09-13T21:28:51.010Z,54.35
2022-09-13T21:31:25.888Z,55.13
2022-09-13T21:33:58.238Z,40.08
2022-09-13T21:36:28.820Z,34.33
2022-09-13T21:38:56.765Z,37.55
2022-09-13T21:41:26.228Z,48.95
2022-09-13T21:43:53.973Z,46.65
2022-09-13T21:46:26.285Z,52.47
2022-09-13T21:48:56.728Z,68.55
2022-09-13T21:51:26.183Z,60.05
2022-09-13T21:53:58.806Z,63.63
2022-09-13T21:56:28.643Z,59.33
2022-09-13T21:59:01.574Z,64.07
2022-09-13T22:01:31.579Z,84.20
2022-09-13T22:03:59.734Z,88.57
2022-09-13T22:06:31.368Z,105.22
2022-09-13T22:09:02.714Z,81.60
2022-09-13T22:11:32.446Z,95.43
2022-09-13T22:14:00.026Z,107.32
2022-09-13T22:16:30.418Z,107.03
2022-09-13T22:19:09.316Z,119.07
2022-09-13T22:21:39.432Z,115.50
2022-09-13T22:24:08.008Z,104.10
2022-09-13T22:26:39.771Z,82.97
2022-09-13T22:29:07.750Z,78.35
2022-09-13T22:31:38.628Z,67.47
2022-09-13T22:34:06.771Z,96.90
2022-09-13T22:36:34.158Z,78.57
2022-09-13T22:39:01.010Z,73.63
2022-09-13T22:41:31.230Z,84.43
2022-09-13T22:43:59.940Z,78.85
2022-09-13T22:46:34.975Z,73.38
2022-09-13T22:49:03.171Z,71.68
2022-09-13T22:51:30.382Z,74.53
2022-09-13T22:53:57.700Z,79.32
2022-09-13T22:56:29.059Z,75.20
2022-09-13T22:59:01.647Z,82.20
2022-09-13T23:01:29.922Z,74.28
2022-09-13T23:03:57.623Z,79.80
2022-09-13T23:06:26.299Z,82.22
2022-09-13T23:08:55.765Z,79.85
2022-09-13T23:11:33.787Z,71.00
2022-09-13T23:14:03.986Z,84.72
2022-09-13T23:16:34.272Z,63.47
2022-09-13T23:19:01.773Z,64.47
2022-09-13T23:21:31.871Z,64.35
2022-09-13T23:24:00.889Z,58.00
2022-09-13T23:26:28.536Z,63.20
2022-09-13T23:29:00.459Z,73.18
2022-09-13T23:31:30.441Z,81.45
2022-09-13T23:34:01.717Z,69.63
2022-09-13T23:36:31.261Z,58.97
2022-09-13T23:38:59.553Z,40.63
2022-09-13T23:41:26.530Z,39.42
2022-09-13T23:43:54.288Z,23.17
2022-09-13T23:46:22.297Z,21.50
2022-09-13T23:48:49.666Z,16.92
2022-09-13T23:51:19.857Z,26.23
2022-09-13T23:53:47.377Z,41.08
2022-09-13T23:56:14.380Z,35.80
2022-09-13T23:58:41.428Z,41.60
